sensor_id;sensor_type;location;lat;lon;timestamp;temperature;humidity
28677;DHT22;15858;48.338;11.078;2023-09-19T00:01:25;16.70;99.90
28677;DHT22;15858;48.338;11.078;2023-09-19T00:03:52;16.70;99.90
28677;DHT22;15858;48.338;11.078;2023-09-19T00:06:19;16.80;99.90
28677;DHT22;15858;48.338;11.078;2023-09-19T00:08:45;16.80;99.90
28677;DHT22;15858;48.338;11.078;2023-09-19T00:11:12;16.90;99.90
28677;DHT22;15858;48.338;11.078;2023-09-19T00:13:38;16.90;99.90
28677;DHT22;15858;48.338;11.078;2023-09-19T00:16:09;16.90;99.90
28677;DHT22;15858;48.338;11.078;2023-09-19T00:18:37;16.90;99.90
28677;DHT22;15858;48.338;11.078;2023-09-19T00:21:04;16.90;99.90
28677;DHT22;15858;48.338;11.078;2023-09-19T00:23:31;16.80;99.90
28677;DHT22;15858;48.338;11.078;2023-09-19T00:26:01;16.80;99.90
28677;DHT22;15858;48.338;11.078;2023-09-19T00:28:28;16.90;99.90
28677;DHT22;15858;48.338;11.078;2023-09-19T00:30:54;16.80;99.90
28677;DHT22;15858;48.338;11.078;2023-09-19T00:33:21;16.80;99.90
28677;DHT22;15858;48.338;11.078;2023-09-19T00:35:49;16.90;99.90
28677;DHT22;15858;48.338;11.078;2023-09-19T00:38:16;16.90;99.90
28677;DHT22;15858;48.338;11.078;2023-09-19T00:40:46;16.80;99.90
28677;DHT22;15858;48.338;11.078;2023-09-19T00:43:13;16.90;99.90
28677;DHT22;15858;48.338;11.078;2023-09-19T00:45:48;16.80;99.90
28677;DHT22;15858;48.338;11.078;2023-09-19T00:48:15;16.80;99.90
28677;DHT22;15858;48.338;11.078;2023-09-19T00:50:43;16.90;99.90
28677;DHT22;15858;48.338;11.078;2023-09-19T00:53:14;16.80;99.90
28677;DHT22;15858;48.338;11.078;2023-09-19T00:55:41;16.80;99.90
28677;DHT22;15858;48.338;11.078;2023-09-19T00:58:08;16.90;99.90
28677;DHT22;15858;48.338;11.078;2023-09-19T01:00:37;16.90;99.90
28677;DHT22;15858;48.338;11.078;2023-09-19T01:03:04;16.90;99.90
28677;DHT22;15858;48.338;11.078;2023-09-19T01:05:30;16.90;99.90
28677;DHT22;15858;48.338;11.078;2023-09-19T01:07:57;16.90;99.90
28677;DHT22;15858;48.338;11.078;2023-09-19T01:10:24;16.90;99.90
28677;DHT22;15858;48.338;11.078;2023-09-19T01:13:16;16.90;99.90
28677;DHT22;15858;48.338;11.078;2023-09-19T01:21:27;17.00;99.90
28677;DHT22;15858;48.338;11.078;2023-09-19T01:29:49;17.00;99.90
28677;DHT22;15858;48.338;11.078;2023-09-19T01:32:18;17.00;99.90
28677;DHT22;15858;48.338;11.078;2023-09-19T01:34:54;17.00;99.90
28677;DHT22;15858;48.338;11.078;2023-09-19T01:37:21;17.10;99.90
28677;DHT22;15858;48.338;11.078;2023-09-19T01:39:50;17.10;99.90
28677;DHT22;15858;48.338;11.078;2023-09-19T01:45:08;17.00;99.90
28677;DHT22;15858;48.338;11.078;2023-09-19T01:47:50;17.00;99.90
28677;DHT22;15858;48.338;11.078;2023-09-19T01:50:29;17.00;99.90
28677;DHT22;15858;48.338;11.078;2023-09-19T01:53:22;17.00;99.90
28677;DHT22;15858;48.338;11.078;2023-09-19T01:55:50;17.10;99.90
28677;DHT22;15858;48.338;11.078;2023-09-19T02:00:48;17.00;99.90
28677;DHT22;15858;48.338;11.078;2023-09-19T02:03:20;17.00;99.90
28677;DHT22;15858;48.338;11.078;2023-09-19T02:05:51;17.00;99.90
28677;DHT22;15858;48.338;11.078;2023-09-19T02:08:19;17.00;99.90
28677;DHT22;15858;48.338;11.078;2023-09-19T02:10:47;17.00;99.90
28677;DHT22;15858;48.338;11.078;2023-09-19T02:13:17;17.00;99.90
28677;DHT22;15858;48.338;11.078;2023-09-19T02:15:44;17.00;99.90
28677;DHT22;15858;48.338;11.078;2023-09-19T02:18:11;17.00;99.90
28677;DHT22;15858;48.338;11.078;2023-09-19T02:20:38;16.90;99.90
28677;DHT22;15858;48.338;11.078;2023-09-19T02:23:06;17.00;99.90
28677;DHT22;15858;48.338;11.078;2023-09-19T02:25:32;16.90;99.90
28677;DHT22;15858;48.338;11.078;2023-09-19T02:27:59;16.90;99.90
28677;DHT22;15858;48.338;11.078;2023-09-19T02:30:26;16.90;99.90
28677;DHT22;15858;48.338;11.078;2023-09-19T02:32:52;16.80;99.90
28677;DHT22;15858;48.338;11.078;2023-09-19T02:35:19;16.80;99.90
28677;DHT22;15858;48.338;11.078;2023-09-19T02:37:46;16.80;99.90
28677;DHT22;15858;48.338;11.078;2023-09-19T02:40:14;16.70;99.90
28677;DHT22;15858;48.338;11.078;2023-09-19T02:42:42;16.80;99.90
28677;DHT22;15858;48.338;11.078;2023-09-19T02:45:09;16.80;99.90
28677;DHT22;15858;48.338;11.078;2023-09-19T02:47:36;16.70;99.90
28677;DHT22;15858;48.338;11.078;2023-09-19T02:50:03;16.80;99.90
28677;DHT22;15858;48.338;11.078;2023-09-19T02:52:29;16.80;99.90
28677;DHT22;15858;48.338;11.078;2023-09-19T02:54:56;16.70;99.90
28677;DHT22;15858;48.338;11.078;2023-09-19T02:57:23;16.70;99.90
28677;DHT22;15858;48.338;11.078;2023-09-19T02:59:50;16.70;99.90
28677;DHT22;15858;48.338;11.078;2023-09-19T03:02:16;16.60;99.90
28677;DHT22;15858;48.338;11.078;2023-09-19T03:04:43;16.60;99.90
28677;DHT22;15858;48.338;11.078;2023-09-19T03:07:10;16.60;99.90
28677;DHT22;15858;48.338;11.078;2023-09-19T03:09:37;16.60;99.90
28677;DHT22;15858;48.338;11.078;2023-09-19T03:12:04;16.60;99.90
28677;DHT22;15858;48.338;11.078;2023-09-19T03:14:30;16.60;99.90
28677;DHT22;15858;48.338;11.078;2023-09-19T03:16:57;16.60;99.90
28677;DHT22;15858;48.338;11.078;2023-09-19T03:19:24;16.60;99.90
28677;DHT22;15858;48.338;11.078;2023-09-19T03:21:50;16.50;99.90
28677;DHT22;15858;48.338;11.078;2023-09-19T03:24:17;16.60;99.90
28677;DHT22;15858;48.338;11.078;2023-09-19T03:26:44;16.60;99.90
28677;DHT22;15858;48.338;11.078;2023-09-19T03:29:10;16.60;99.90
28677;DHT22;15858;48.338;11.078;2023-09-19T03:31:37;16.50;99.90
28677;DHT22;15858;48.338;11.078;2023-09-19T03:34:04;16.60;99.90
28677;DHT22;15858;48.338;11.078;2023-09-19T03:36:30;16.50;99.90
28677;DHT22;15858;48.338;11.078;2023-09-19T03:38:57;16.50;99.90
28677;DHT22;15858;48.338;11.078;2023-09-19T03:41:24;16.50;99.90
28677;DHT22;15858;48.338;11.078;2023-09-19T03:43:50;16.50;99.90
28677;DHT22;15858;48.338;11.078;2023-09-19T03:46:17;16.60;99.90
28677;DHT22;15858;48.338;11.078;2023-09-19T03:48:44;16.60;99.90
28677;DHT22;15858;48.338;11.078;2023-09-19T03:51:11;16.50;99.90
28677;DHT22;15858;48.338;11.078;2023-09-19T03:53:37;16.50;99.90
28677;DHT22;15858;48.338;11.078;2023-09-19T03:56:04;16.50;99.90
28677;DHT22;15858;48.338;11.078;2023-09-19T03:58:31;16.50;99.90
28677;DHT22;15858;48.338;11.078;2023-09-19T04:00:58;16.60;99.90
28677;DHT22;15858;48.338;11.078;2023-09-19T04:03:25;16.60;99.90
28677;DHT22;15858;48.338;11.078;2023-09-19T04:05:51;16.60;99.90
28677;DHT22;15858;48.338;11.078;2023-09-19T04:08:18;16.60;99.90
28677;DHT22;15858;48.338;11.078;2023-09-19T04:10:45;16.70;99.90
28677;DHT22;15858;48.338;11.078;2023-09-19T04:13:11;16.60;99.90
28677;DHT22;15858;48.338;11.078;2023-09-19T04:15:38;16.60;99.90
28677;DHT22;15858;48.338;11.078;2023-09-19T04:18:05;16.60;99.90
28677;DHT22;15858;48.338;11.078;2023-09-19T04:20:31;16.70;99.90
28677;DHT22;15858;48.338;11.078;2023-09-19T04:22:58;16.60;99.90
28677;DHT22;15858;48.338;11.078;2023-09-19T04:25:25;16.60;99.90
28677;DHT22;15858;48.338;11.078;2023-09-19T04:27:51;16.60;99.90
28677;DHT22;15858;48.338;11.078;2023-09-19T04:30:18;16.70;99.90
28677;DHT22;15858;48.338;11.078;2023-09-19T04:32:45;16.60;99.90
28677;DHT22;15858;48.338;11.078;2023-09-19T04:35:11;16.60;99.90
28677;DHT22;15858;48.338;11.078;2023-09-19T04:37:39;16.60;99.90
28677;DHT22;15858;48.338;11.078;2023-09-19T04:40:08;16.60;99.90
28677;DHT22;15858;48.338;11.078;2023-09-19T04:42:34;16.50;99.90
28677;DHT22;15858;48.338;11.078;2023-09-19T04:45:01;16.40;99.90
28677;DHT22;15858;48.338;11.078;2023-09-19T04:47:28;16.40;99.90
28677;DHT22;15858;48.338;11.078;2023-09-19T04:49:55;16.40;99.90
28677;DHT22;15858;48.338;11.078;2023-09-19T04:52:21;16.30;99.90
28677;DHT22;15858;48.338;11.078;2023-09-19T04:54:48;16.30;99.90
28677;DHT22;15858;48.338;11.078;2023-09-19T04:57:15;16.30;99.90
28677;DHT22;15858;48.338;11.078;2023-09-19T04:59:41;16.30;99.90
28677;DHT22;15858;48.338;11.078;2023-09-19T05:02:08;16.30;99.90
28677;DHT22;15858;48.338;11.078;2023-09-19T05:04:35;16.30;99.90
28677;DHT22;15858;48.338;11.078;2023-09-19T05:07:02;16.30;99.90
28677;DHT22;15858;48.338;11.078;2023-09-19T05:09:28;16.20;99.90
28677;DHT22;15858;48.338;11.078;2023-09-19T05:11:55;16.30;99.90
28677;DHT22;15858;48.338;11.078;2023-09-19T05:14:22;16.30;99.90
28677;DHT22;15858;48.338;11.078;2023-09-19T05:16:48;16.30;99.90
28677;DHT22;15858;48.338;11.078;2023-09-19T05:19:15;16.30;99.90
28677;DHT22;15858;48.338;11.078;2023-09-19T05:21:42;16.30;99.90
28677;DHT22;15858;48.338;11.078;2023-09-19T05:24:08;16.20;99.90
28677;DHT22;15858;48.338;11.078;2023-09-19T05:26:37;16.20;99.90
28677;DHT22;15858;48.338;11.078;2023-09-19T05:29:03;16.30;99.90
28677;DHT22;15858;48.338;11.078;2023-09-19T05:31:30;16.30;99.90
28677;DHT22;15858;48.338;11.078;2023-09-19T05:33:57;16.30;99.90
28677;DHT22;15858;48.338;11.078;2023-09-19T05:36:23;16.20;99.90
28677;DHT22;15858;48.338;11.078;2023-09-19T05:38:50;16.30;99.90
28677;DHT22;15858;48.338;11.078;2023-09-19T05:41:18;16.30;99.90
28677;DHT22;15858;48.338;11.078;2023-09-19T05:43:44;16.30;99.90
28677;DHT22;15858;48.338;11.078;2023-09-19T05:46:11;16.40;99.90
28677;DHT22;15858;48.338;11.078;2023-09-19T05:48:38;16.40;99.90
28677;DHT22;15858;48.338;11.078;2023-09-19T05:51:04;16.40;99.90
28677;DHT22;15858;48.338;11.078;2023-09-19T05:53:31;16.40;99.90
28677;DHT22;15858;48.338;11.078;2023-09-19T05:55:57;16.40;99.90
28677;DHT22;15858;48.338;11.078;2023-09-19T05:58:24;16.50;99.90
28677;DHT22;15858;48.338;11.078;2023-09-19T06:00:51;16.40;99.90
28677;DHT22;15858;48.338;11.078;2023-09-19T06:03:17;16.50;99.90
28677;DHT22;15858;48.338;11.078;2023-09-19T06:05:44;16.50;99.90
28677;DHT22;15858;48.338;11.078;2023-09-19T06:08:11;16.50;99.90
28677;DHT22;15858;48.338;11.078;2023-09-19T06:10:38;16.40;99.90
28677;DHT22;15858;48.338;11.078;2023-09-19T06:13:04;16.50;99.90
28677;DHT22;15858;48.338;11.078;2023-09-19T06:15:31;16.60;99.90
28677;DHT22;15858;48.338;11.078;2023-09-19T06:17:58;16.70;99.90
28677;DHT22;15858;48.338;11.078;2023-09-19T06:20:26;16.80;99.90
28677;DHT22;15858;48.338;11.078;2023-09-19T06:22:53;16.90;99.90
28677;DHT22;15858;48.338;11.078;2023-09-19T06:25:20;17.10;99.90
28677;DHT22;15858;48.338;11.078;2023-09-19T06:27:48;17.10;99.90
28677;DHT22;15858;48.338;11.078;2023-09-19T06:30:15;17.00;99.90
28677;DHT22;15858;48.338;11.078;2023-09-19T06:32:42;16.90;99.90
28677;DHT22;15858;48.338;11.078;2023-09-19T06:35:09;16.70;99.90
28677;DHT22;15858;48.338;11.078;2023-09-19T06:37:36;16.70;99.90
28677;DHT22;15858;48.338;11.078;2023-09-19T06:40:03;16.60;99.90
28677;DHT22;15858;48.338;11.078;2023-09-19T06:42:29;16.60;99.90
28677;DHT22;15858;48.338;11.078;2023-09-19T06:44:56;16.60;99.90
28677;DHT22;15858;48.338;11.078;2023-09-19T06:47:23;16.60;99.90
28677;DHT22;15858;48.338;11.078;2023-09-19T06:49:49;16.60;99.90
28677;DHT22;15858;48.338;11.078;2023-09-19T06:52:16;16.60;99.90
28677;DHT22;15858;48.338;11.078;2023-09-19T06:54:43;16.70;99.90
28677;DHT22;15858;48.338;11.078;2023-09-19T06:57:09;16.70;99.90
28677;DHT22;15858;48.338;11.078;2023-09-19T06:59:36;16.70;99.90
28677;DHT22;15858;48.338;11.078;2023-09-19T07:02:03;16.70;99.90
28677;DHT22;15858;48.338;11.078;2023-09-19T07:04:30;16.70;99.90
28677;DHT22;15858;48.338;11.078;2023-09-19T07:06:56;16.70;99.90
28677;DHT22;15858;48.338;11.078;2023-09-19T07:09:23;16.80;99.90
28677;DHT22;15858;48.338;11.078;2023-09-19T07:11:50;16.90;99.90
28677;DHT22;15858;48.338;11.078;2023-09-19T07:14:16;17.20;99.90
28677;DHT22;15858;48.338;11.078;2023-09-19T07:16:43;17.50;99.90
28677;DHT22;15858;48.338;11.078;2023-09-19T07:19:10;17.60;99.90
28677;DHT22;15858;48.338;11.078;2023-09-19T07:21:36;17.60;99.90
28677;DHT22;15858;48.338;11.078;2023-09-19T07:24:03;17.70;99.90
28677;DHT22;15858;48.338;11.078;2023-09-19T07:26:30;17.70;99.90
28677;DHT22;15858;48.338;11.078;2023-09-19T07:28:56;17.60;99.90
28677;DHT22;15858;48.338;11.078;2023-09-19T07:31:23;17.60;99.90
28677;DHT22;15858;48.338;11.078;2023-09-19T07:33:50;17.70;99.90
28677;DHT22;15858;48.338;11.078;2023-09-19T07:36:17;17.70;99.90
28677;DHT22;15858;48.338;11.078;2023-09-19T07:38:43;17.70;99.90
28677;DHT22;15858;48.338;11.078;2023-09-19T07:41:10;17.70;99.90
28677;DHT22;15858;48.338;11.078;2023-09-19T07:43:37;17.70;99.90
28677;DHT22;15858;48.338;11.078;2023-09-19T07:46:07;17.70;99.90
28677;DHT22;15858;48.338;11.078;2023-09-19T07:48:35;17.60;99.90
28677;DHT22;15858;48.338;11.078;2023-09-19T07:51:03;17.80;99.90
28677;DHT22;15858;48.338;11.078;2023-09-19T07:53:30;18.00;99.90
28677;DHT22;15858;48.338;11.078;2023-09-19T07:56:04;18.20;99.90
28677;DHT22;15858;48.338;11.078;2023-09-19T07:58:31;18.40;99.90
28677;DHT22;15858;48.338;11.078;2023-09-19T08:01:05;18.60;99.90
28677;DHT22;15858;48.338;11.078;2023-09-19T08:03:33;18.70;99.90
28677;DHT22;15858;48.338;11.078;2023-09-19T08:06:00;18.90;99.90
28677;DHT22;15858;48.338;11.078;2023-09-19T08:08:27;19.00;99.90
28677;DHT22;15858;48.338;11.078;2023-09-19T08:10:55;19.00;99.90
28677;DHT22;15858;48.338;11.078;2023-09-19T08:13:26;19.10;99.90
28677;DHT22;15858;48.338;11.078;2023-09-19T08:15:52;19.30;99.90
28677;DHT22;15858;48.338;11.078;2023-09-19T08:18:19;19.50;99.90
28677;DHT22;15858;48.338;11.078;2023-09-19T08:20:50;19.60;99.90
28677;DHT22;15858;48.338;11.078;2023-09-19T08:23:17;19.70;99.90
28677;DHT22;15858;48.338;11.078;2023-09-19T08:25:43;19.90;99.90
28677;DHT22;15858;48.338;11.078;2023-09-19T08:28:10;20.00;99.90
28677;DHT22;15858;48.338;11.078;2023-09-19T08:30:37;20.00;99.90
28677;DHT22;15858;48.338;11.078;2023-09-19T08:33:04;20.00;99.90
28677;DHT22;15858;48.338;11.078;2023-09-19T08:35:30;20.00;99.90
28677;DHT22;15858;48.338;11.078;2023-09-19T08:37:57;20.00;99.90
28677;DHT22;15858;48.338;11.078;2023-09-19T08:40:24;19.90;99.90
28677;DHT22;15858;48.338;11.078;2023-09-19T08:42:55;19.80;99.90
28677;DHT22;15858;48.338;11.078;2023-09-19T08:45:24;19.80;99.90
28677;DHT22;15858;48.338;11.078;2023-09-19T08:48:44;19.60;99.90
28677;DHT22;15858;48.338;11.078;2023-09-19T08:50:49;19.90;99.90
28677;DHT22;15858;48.338;11.078;2023-09-19T08:53:26;20.10;99.90
28677;DHT22;15858;48.338;11.078;2023-09-19T08:55:53;20.30;99.90
28677;DHT22;15858;48.338;11.078;2023-09-19T08:58:21;20.40;99.90
28677;DHT22;15858;48.338;11.078;2023-09-19T09:00:53;20.30;99.90
28677;DHT22;15858;48.338;11.078;2023-09-19T09:03:20;20.40;99.90
28677;DHT22;15858;48.338;11.078;2023-09-19T09:05:49;20.50;99.90
28677;DHT22;15858;48.338;11.078;2023-09-19T09:08:18;20.70;99.90
28677;DHT22;15858;48.338;11.078;2023-09-19T09:10:45;21.00;99.90
28677;DHT22;15858;48.338;11.078;2023-09-19T09:13:12;21.10;99.90
28677;DHT22;15858;48.338;11.078;2023-09-19T09:15:41;21.30;99.90
28677;DHT22;15858;48.338;11.078;2023-09-19T09:18:07;21.50;99.90
28677;DHT22;15858;48.338;11.078;2023-09-19T09:20:34;21.60;99.90
28677;DHT22;15858;48.338;11.078;2023-09-19T09:23:01;21.30;99.90
28677;DHT22;15858;48.338;11.078;2023-09-19T09:25:47;21.20;99.90
28677;DHT22;15858;48.338;11.078;2023-09-19T09:28:19;21.10;99.90
28677;DHT22;15858;48.338;11.078;2023-09-19T09:30:46;21.20;99.90
28677;DHT22;15858;48.338;11.078;2023-09-19T09:33:14;21.30;99.90
28677;DHT22;15858;48.338;11.078;2023-09-19T09:36:07;21.20;99.90
28677;DHT22;15858;48.338;11.078;2023-09-19T09:38:47;21.20;99.90
28677;DHT22;15858;48.338;11.078;2023-09-19T09:41:16;21.10;99.90
28677;DHT22;15858;48.338;11.078;2023-09-19T09:43:42;20.90;99.90
28677;DHT22;15858;48.338;11.078;2023-09-19T09:46:18;20.60;99.90
28677;DHT22;15858;48.338;11.078;2023-09-19T09:48:45;20.60;99.90
28677;DHT22;15858;48.338;11.078;2023-09-19T09:51:12;20.50;99.90
28677;DHT22;15858;48.338;11.078;2023-09-19T09:53:39;20.40;99.90
28677;DHT22;15858;48.338;11.078;2023-09-19T09:56:07;20.30;99.90
28677;DHT22;15858;48.338;11.078;2023-09-19T09:58:35;20.30;99.90
28677;DHT22;15858;48.338;11.078;2023-09-19T10:01:03;20.10;99.90
28677;DHT22;15858;48.338;11.078;2023-09-19T10:03:40;20.00;99.90
28677;DHT22;15858;48.338;11.078;2023-09-19T10:06:10;20.00;99.90
28677;DHT22;15858;48.338;11.078;2023-09-19T10:08:36;20.00;99.90
28677;DHT22;15858;48.338;11.078;2023-09-19T10:11:16;20.10;99.90
28677;DHT22;15858;48.338;11.078;2023-09-19T10:13:42;20.10;99.90
28677;DHT22;15858;48.338;11.078;2023-09-19T10:16:11;20.20;99.90
28677;DHT22;15858;48.338;11.078;2023-09-19T10:18:39;20.10;99.90
28677;DHT22;15858;48.338;11.078;2023-09-19T10:21:09;20.10;99.90
28677;DHT22;15858;48.338;11.078;2023-09-19T10:23:36;20.10;99.90
28677;DHT22;15858;48.338;11.078;2023-09-19T10:26:04;20.00;99.90
28677;DHT22;15858;48.338;11.078;2023-09-19T10:28:32;20.00;99.90
28677;DHT22;15858;48.338;11.078;2023-09-19T10:31:00;19.90;99.90
28677;DHT22;15858;48.338;11.078;2023-09-19T10:33:35;20.00;99.90
28677;DHT22;15858;48.338;11.078;2023-09-19T10:36:05;19.90;99.90
28677;DHT22;15858;48.338;11.078;2023-09-19T10:38:33;20.10;99.90
28677;DHT22;15858;48.338;11.078;2023-09-19T10:41:01;20.40;99.90
28677;DHT22;15858;48.338;11.078;2023-09-19T10:43:32;20.80;99.90
28677;DHT22;15858;48.338;11.078;2023-09-19T10:46:07;21.10;99.90
28677;DHT22;15858;48.338;11.078;2023-09-19T10:48:35;21.40;99.90
28677;DHT22;15858;48.338;11.078;2023-09-19T10:51:10;21.70;99.90
28677;DHT22;15858;48.338;11.078;2023-09-19T10:53:54;21.90;99.90
28677;DHT22;15858;48.338;11.078;2023-09-19T10:56:26;21.70;99.90
28677;DHT22;15858;48.338;11.078;2023-09-19T10:59:08;21.80;99.90
28677;DHT22;15858;48.338;11.078;2023-09-19T11:01:49;21.80;99.90
28677;DHT22;15858;48.338;11.078;2023-09-19T11:04:30;21.80;99.90
28677;DHT22;15858;48.338;11.078;2023-09-19T11:07:06;21.60;99.90
28677;DHT22;15858;48.338;11.078;2023-09-19T11:09:53;21.60;99.90
28677;DHT22;15858;48.338;11.078;2023-09-19T11:14:56;21.60;99.90
28677;DHT22;15858;48.338;11.078;2023-09-19T11:17:33;21.60;99.90
28677;DHT22;15858;48.338;11.078;2023-09-19T11:30:35;21.20;99.90
28677;DHT22;15858;48.338;11.078;2023-09-19T11:33:27;21.20;99.90
28677;DHT22;15858;48.338;11.078;2023-09-19T11:43:49;22.10;99.90
28677;DHT22;15858;48.338;11.078;2023-09-19T11:46:16;22.00;99.90
28677;DHT22;15858;48.338;11.078;2023-09-19T11:48:43;21.90;99.90
28677;DHT22;15858;48.338;11.078;2023-09-19T11:51:15;21.80;99.90
28677;DHT22;15858;48.338;11.078;2023-09-19T11:53:43;21.50;99.90
28677;DHT22;15858;48.338;11.078;2023-09-19T11:56:10;21.30;99.90
28677;DHT22;15858;48.338;11.078;2023-09-19T11:58:37;21.10;99.90
28677;DHT22;15858;48.338;11.078;2023-09-19T12:01:05;21.00;99.90
28677;DHT22;15858;48.338;11.078;2023-09-19T12:03:32;20.70;99.90
28677;DHT22;15858;48.338;11.078;2023-09-19T12:06:00;20.60;99.90
28677;DHT22;15858;48.338;11.078;2023-09-19T12:08:26;20.60;99.90
28677;DHT22;15858;48.338;11.078;2023-09-19T12:10:54;21.00;99.90
28677;DHT22;15858;48.338;11.078;2023-09-19T12:13:21;21.40;99.90
28677;DHT22;15858;48.338;11.078;2023-09-19T12:15:48;21.60;99.90
28677;DHT22;15858;48.338;11.078;2023-09-19T12:18:30;22.10;99.90
28677;DHT22;15858;48.338;11.078;2023-09-19T12:20:57;22.40;99.90
28677;DHT22;15858;48.338;11.078;2023-09-19T12:23:24;22.60;99.90
28677;DHT22;15858;48.338;11.078;2023-09-19T12:25:52;22.80;99.90
28677;DHT22;15858;48.338;11.078;2023-09-19T12:28:20;22.90;99.90
28677;DHT22;15858;48.338;11.078;2023-09-19T12:30:46;22.60;99.90
28677;DHT22;15858;48.338;11.078;2023-09-19T12:33:19;22.80;99.90
28677;DHT22;15858;48.338;11.078;2023-09-19T12:35:47;22.80;99.90
28677;DHT22;15858;48.338;11.078;2023-09-19T12:38:24;22.70;99.90
28677;DHT22;15858;48.338;11.078;2023-09-19T12:40:52;22.90;99.90
28677;DHT22;15858;48.338;11.078;2023-09-19T12:43:19;23.00;99.90
28677;DHT22;15858;48.338;11.078;2023-09-19T12:45:46;23.10;99.90
28677;DHT22;15858;48.338;11.078;2023-09-19T12:48:24;23.30;99.90
28677;DHT22;15858;48.338;11.078;2023-09-19T12:51:07;23.50;99.90
28677;DHT22;15858;48.338;11.078;2023-09-19T12:53:37;23.40;99.90
28677;DHT22;15858;48.338;11.078;2023-09-19T12:56:05;23.50;99.90
28677;DHT22;15858;48.338;11.078;2023-09-19T12:58:32;23.60;99.90
28677;DHT22;15858;48.338;11.078;2023-09-19T13:00:58;23.60;99.90
28677;DHT22;15858;48.338;11.078;2023-09-19T13:03:29;23.50;99.90
28677;DHT22;15858;48.338;11.078;2023-09-19T13:05:57;23.60;99.90
28677;DHT22;15858;48.338;11.078;2023-09-19T13:08:29;23.60;99.90
28677;DHT22;15858;48.338;11.078;2023-09-19T13:11:15;23.60;99.90
28677;DHT22;15858;48.338;11.078;2023-09-19T13:13:47;24.00;99.90
28677;DHT22;15858;48.338;11.078;2023-09-19T13:16:16;23.90;99.90
28677;DHT22;15858;48.338;11.078;2023-09-19T13:18:48;23.70;99.90
28677;DHT22;15858;48.338;11.078;2023-09-19T13:21:15;23.70;99.90
28677;DHT22;15858;48.338;11.078;2023-09-19T13:23:42;23.90;99.90
28677;DHT22;15858;48.338;11.078;2023-09-19T13:26:12;23.70;99.90
28677;DHT22;15858;48.338;11.078;2023-09-19T13:28:40;23.60;99.90
28677;DHT22;15858;48.338;11.078;2023-09-19T13:31:07;23.40;99.90
28677;DHT22;15858;48.338;11.078;2023-09-19T13:33:35;23.40;99.90
28677;DHT22;15858;48.338;11.078;2023-09-19T13:36:02;23.50;99.90
28677;DHT22;15858;48.338;11.078;2023-09-19T13:38:28;23.60;99.90
28677;DHT22;15858;48.338;11.078;2023-09-19T13:40:55;23.70;99.90
28677;DHT22;15858;48.338;11.078;2023-09-19T13:43:22;23.50;99.90
28677;DHT22;15858;48.338;11.078;2023-09-19T13:45:48;23.40;99.90
28677;DHT22;15858;48.338;11.078;2023-09-19T13:48:15;23.40;99.90
28677;DHT22;15858;48.338;11.078;2023-09-19T13:50:42;23.50;99.90
28677;DHT22;15858;48.338;11.078;2023-09-19T13:53:09;23.70;99.90
28677;DHT22;15858;48.338;11.078;2023-09-19T13:55:36;23.90;99.90
28677;DHT22;15858;48.338;11.078;2023-09-19T13:58:02;23.80;99.90
28677;DHT22;15858;48.338;11.078;2023-09-19T14:00:29;23.80;99.90
28677;DHT22;15858;48.338;11.078;2023-09-19T14:02:56;23.80;99.90
28677;DHT22;15858;48.338;11.078;2023-09-19T14:05:22;23.50;99.90
28677;DHT22;15858;48.338;11.078;2023-09-19T14:07:50;23.30;99.90
28677;DHT22;15858;48.338;11.078;2023-09-19T14:10:16;23.40;99.90
28677;DHT22;15858;48.338;11.078;2023-09-19T14:12:45;23.30;99.90
28677;DHT22;15858;48.338;11.078;2023-09-19T14:15:12;23.30;99.90
28677;DHT22;15858;48.338;11.078;2023-09-19T14:17:39;23.20;99.90
28677;DHT22;15858;48.338;11.078;2023-09-19T14:20:07;23.20;99.90
28677;DHT22;15858;48.338;11.078;2023-09-19T14:22:34;23.20;99.90
28677;DHT22;15858;48.338;11.078;2023-09-19T14:25:00;23.00;99.90
28677;DHT22;15858;48.338;11.078;2023-09-19T14:27:27;23.10;99.90
28677;DHT22;15858;48.338;11.078;2023-09-19T14:29:54;23.20;99.90
28677;DHT22;15858;48.338;11.078;2023-09-19T14:32:20;23.20;99.90
28677;DHT22;15858;48.338;11.078;2023-09-19T14:34:47;22.90;99.90
28677;DHT22;15858;48.338;11.078;2023-09-19T14:37:14;22.70;99.90
28677;DHT22;15858;48.338;11.078;2023-09-19T14:39:41;22.50;99.90
28677;DHT22;15858;48.338;11.078;2023-09-19T14:42:08;22.40;99.90
28677;DHT22;15858;48.338;11.078;2023-09-19T14:44:34;22.50;99.90
28677;DHT22;15858;48.338;11.078;2023-09-19T14:47:02;22.60;99.90
28677;DHT22;15858;48.338;11.078;2023-09-19T14:49:29;22.50;99.90
28677;DHT22;15858;48.338;11.078;2023-09-19T14:51:55;22.50;99.90
28677;DHT22;15858;48.338;11.078;2023-09-19T14:54:22;22.50;99.90
28677;DHT22;15858;48.338;11.078;2023-09-19T14:56:49;22.50;99.90
28677;DHT22;15858;48.338;11.078;2023-09-19T14:59:15;22.50;99.90
28677;DHT22;15858;48.338;11.078;2023-09-19T15:01:42;22.50;99.90
28677;DHT22;15858;48.338;11.078;2023-09-19T15:04:09;22.40;99.90
28677;DHT22;15858;48.338;11.078;2023-09-19T15:06:36;22.40;99.90
28677;DHT22;15858;48.338;11.078;2023-09-19T15:09:02;22.20;99.90
28677;DHT22;15858;48.338;11.078;2023-09-19T15:11:29;22.30;99.90
28677;DHT22;15858;48.338;11.078;2023-09-19T15:13:56;22.30;99.90
28677;DHT22;15858;48.338;11.078;2023-09-19T15:16:22;22.30;99.90
28677;DHT22;15858;48.338;11.078;2023-09-19T15:18:49;22.30;99.90
28677;DHT22;15858;48.338;11.078;2023-09-19T15:21:16;22.30;99.90
28677;DHT22;15858;48.338;11.078;2023-09-19T15:23:43;22.30;99.90
28677;DHT22;15858;48.338;11.078;2023-09-19T15:26:11;22.20;99.90
28677;DHT22;15858;48.338;11.078;2023-09-19T15:28:39;22.20;99.90
28677;DHT22;15858;48.338;11.078;2023-09-19T15:31:09;22.20;99.90
28677;DHT22;15858;48.338;11.078;2023-09-19T15:33:36;22.10;99.90
28677;DHT22;15858;48.338;11.078;2023-09-19T15:36:07;22.10;99.90
28677;DHT22;15858;48.338;11.078;2023-09-19T15:39:29;22.20;99.90
28677;DHT22;15858;48.338;11.078;2023-09-19T15:41:46;22.30;99.90
28677;DHT22;15858;48.338;11.078;2023-09-19T15:44:14;22.40;99.90
28677;DHT22;15858;48.338;11.078;2023-09-19T15:46:41;22.40;99.90
28677;DHT22;15858;48.338;11.078;2023-09-19T15:49:08;22.40;99.90
28677;DHT22;15858;48.338;11.078;2023-09-19T15:51:35;22.40;99.90
28677;DHT22;15858;48.338;11.078;2023-09-19T15:54:10;22.40;99.90
28677;DHT22;15858;48.338;11.078;2023-09-19T15:56:37;22.50;99.90
28677;DHT22;15858;48.338;11.078;2023-09-19T15:59:04;22.60;99.90
28677;DHT22;15858;48.338;11.078;2023-09-19T16:01:31;22.60;99.90